Saint Libory, NE (68872)

2:14 PM CDT on July 30, 2014 (GMT -0500)
Central Nebraska Regional (KGRI) Elev 1857 ft | 40.96 °N, 98.31 °W | Change Station

Current weather conditions updated 21 minutes ago

Scattered Clouds
Scattered Clouds
78 °F
Feels Like 78 °F
N
7
Wind Variable Wind from ESE

Today is forecast to be nearly the same temperature as yesterday.

Today
High -- | Low -- °F
--% Chance of Precip.
Yesterday
High -- | Low -- °F
Precip. -- in
6:27 AM 8:51 PM
Waxing Crescent, 13% visible
Pressure 30.14 in
Visibility 10.0 miles
Clouds Scattered Clouds 5000 ft
Dew Point 55 °F
Humidity 45%
Rainfall 0.00 in
Snow Depth Not available.
UV 9 out of 12
Pollen 6.70 out of 12
Air Quality Not available.
Flu Activity Not available.
METAR KGRI 301853Z 12006KT 10SM SCT050 26/13 A3017 RMK AO2 SLP206 T02560128

More Conditions Fewer Conditions

Pressure 30.14 in
Visibility 10.0 miles
Clouds Scattered Clouds 5000 ft
Dew Point 55 °F
Humidity 45%
Rainfall 0.00 in
Snow Depth Not available.
UV 9 out of 12
Pollen 6.70 out of 12
Air Quality Not available.
Flu Activity Not available.
METAR KGRI 301853Z 12006KT 10SM SCT050 26/13 A3017 RMK AO2 SLP206 T02560128

More Conditions Fewer Conditions

10-Day Weather Forecast

Almanac

Astronomy

Jul. 30, 2014 Rise Set
Actual Time 6:27 AM CDT 8:51 PM CDT
Civil Twilight 5:56 AM CDT 9:22 PM CDT
Nautical Twilight 5:17 AM CDT 10:01 PM CDT
Astronomical Twilight 4:34 AM CDT 10:44 PM CDT
Moon 10:02 AM CDT 10:32 PM CDT
Length of Visible Light 15h 26m
Length of Day
14h 24m
Tomorrow will be 2m 2s shorter.
Waxing Crescent, 13% of the Moon is Illuminated
Today
Waxing Crescent
Aug 3
First Quarter
Aug 10
Full
Aug 17
Last Quarter
Aug 25
New

Today's Extremes

State Highs State Lows

Community

WunderPhotos

Upload Photos

1,739,162 photos uploaded!

WunderBlogs® & News

Nearby

Snow Depth

Station Depth Elevation
No new snow has been reported.

Earthquake Activity

City Distance Mag. Time & Date
No recent earthquake activity has been reported nearby.
Minimum magnitude displayed is 2.5.

Coastal Water Temperatures

Place Temperature
No Stations Reporting

Nearby Weather Stations

Station Location Temp. Heat Index Dew Point Humidity Wind Precip. Elev Updated Type
10th and Custer, Grand Island, NE 78.5 °F 80 °F 58 °F 49% NE  at  2.0 mph 0.00 in / hr 1865 ft 2:14 PM CDT Rapid Fire
Riverside/Barr, Grand Island, NE 78.0 °F 79 °F 58 °F 50% East  at  0.0 mph 0.00 in / hr 1856 ft 2:14 PM CDT Rapid Fire
MesoWest CENTL1 , Central City, NE 73 °F 71 °F - - North  at  - 0.00 in / hr 1671 ft 1:00 PM CDT MADIS

Show More Stations Show Fewer Stations